sensor_id;sensor_type;location;lat;lon;timestamp;temperature;humidity
42261;DHT22;27926;48.062;7.474;2023-05-16T00:00:14;13.00;99.90
42261;DHT22;27926;48.062;7.474;2023-05-16T00:02:39;13.00;99.90
42261;DHT22;27926;48.062;7.474;2023-05-16T00:05:08;13.00;99.90
42261;DHT22;27926;48.062;7.474;2023-05-16T00:07:34;13.00;99.90
42261;DHT22;27926;48.062;7.474;2023-05-16T00:09:58;13.00;99.90
42261;DHT22;27926;48.062;7.474;2023-05-16T00:12:23;13.00;99.90
42261;DHT22;27926;48.062;7.474;2023-05-16T00:14:48;13.00;99.90
42261;DHT22;27926;48.062;7.474;2023-05-16T00:17:15;13.00;99.90
42261;DHT22;27926;48.062;7.474;2023-05-16T00:19:40;13.00;99.90
42261;DHT22;27926;48.062;7.474;2023-05-16T00:22:05;13.00;99.90
42261;DHT22;27926;48.062;7.474;2023-05-16T00:24:30;13.00;99.90
42261;DHT22;27926;48.062;7.474;2023-05-16T00:26:54;13.00;99.90
42261;DHT22;27926;48.062;7.474;2023-05-16T00:29:19;13.00;99.90
42261;DHT22;27926;48.062;7.474;2023-05-16T00:31:44;12.90;99.90
42261;DHT22;27926;48.062;7.474;2023-05-16T00:34:08;12.90;99.90
42261;DHT22;27926;48.062;7.474;2023-05-16T00:36:33;12.90;99.90
42261;DHT22;27926;48.062;7.474;2023-05-16T00:38:59;12.90;99.90
42261;DHT22;27926;48.062;7.474;2023-05-16T00:41:23;12.90;99.90
42261;DHT22;27926;48.062;7.474;2023-05-16T00:43:48;12.90;99.90
42261;DHT22;27926;48.062;7.474;2023-05-16T00:46:13;12.90;99.90
42261;DHT22;27926;48.062;7.474;2023-05-16T00:48:38;12.80;99.90
42261;DHT22;27926;48.062;7.474;2023-05-16T00:51:03;12.80;99.90
42261;DHT22;27926;48.062;7.474;2023-05-16T00:53:32;12.80;99.90
42261;DHT22;27926;48.062;7.474;2023-05-16T00:55:57;12.80;99.90
42261;DHT22;27926;48.062;7.474;2023-05-16T00:58:22;12.80;99.90
42261;DHT22;27926;48.062;7.474;2023-05-16T01:00:48;12.70;99.90
42261;DHT22;27926;48.062;7.474;2023-05-16T01:03:13;12.70;99.90
42261;DHT22;27926;48.062;7.474;2023-05-16T01:05:38;12.70;99.90
42261;DHT22;27926;48.062;7.474;2023-05-16T01:08:03;12.70;99.90
42261;DHT22;27926;48.062;7.474;2023-05-16T01:10:35;12.70;99.90
42261;DHT22;27926;48.062;7.474;2023-05-16T01:13:20;12.70;99.90
42261;DHT22;27926;48.062;7.474;2023-05-16T01:15:54;12.70;99.90
42261;DHT22;27926;48.062;7.474;2023-05-16T01:21:03;12.80;99.90
42261;DHT22;27926;48.062;7.474;2023-05-16T01:28:44;12.80;99.90
42261;DHT22;27926;48.062;7.474;2023-05-16T01:31:10;12.80;99.90
42261;DHT22;27926;48.062;7.474;2023-05-16T01:33:34;12.90;99.90
42261;DHT22;27926;48.062;7.474;2023-05-16T01:36:25;12.90;99.90
42261;DHT22;27926;48.062;7.474;2023-05-16T01:39:10;12.90;99.90
42261;DHT22;27926;48.062;7.474;2023-05-16T01:44:15;12.90;99.90
42261;DHT22;27926;48.062;7.474;2023-05-16T01:46:45;12.90;99.90
42261;DHT22;27926;48.062;7.474;2023-05-16T01:49:20;12.90;99.90
42261;DHT22;27926;48.062;7.474;2023-05-16T01:51:51;12.90;99.90
42261;DHT22;27926;48.062;7.474;2023-05-16T01:54:18;12.90;99.90
42261;DHT22;27926;48.062;7.474;2023-05-16T01:56:50;12.90;99.90
42261;DHT22;27926;48.062;7.474;2023-05-16T01:59:16;12.90;99.90
42261;DHT22;27926;48.062;7.474;2023-05-16T02:01:41;12.90;99.90
42261;DHT22;27926;48.062;7.474;2023-05-16T02:04:05;12.90;99.90
42261;DHT22;27926;48.062;7.474;2023-05-16T02:06:30;12.90;99.90
42261;DHT22;27926;48.062;7.474;2023-05-16T02:08:55;12.90;99.90
42261;DHT22;27926;48.062;7.474;2023-05-16T02:11:19;12.90;99.90
42261;DHT22;27926;48.062;7.474;2023-05-16T02:13:45;12.90;99.90
42261;DHT22;27926;48.062;7.474;2023-05-16T02:16:10;12.90;99.90
42261;DHT22;27926;48.062;7.474;2023-05-16T02:18:35;12.90;99.90
42261;DHT22;27926;48.062;7.474;2023-05-16T02:20:59;12.90;99.90
42261;DHT22;27926;48.062;7.474;2023-05-16T02:23:24;12.90;99.90
42261;DHT22;27926;48.062;7.474;2023-05-16T02:25:48;12.90;99.90
42261;DHT22;27926;48.062;7.474;2023-05-16T02:28:13;12.80;99.90
42261;DHT22;27926;48.062;7.474;2023-05-16T02:30:37;12.80;99.90
42261;DHT22;27926;48.062;7.474;2023-05-16T02:33:02;12.80;99.90
42261;DHT22;27926;48.062;7.474;2023-05-16T02:35:27;12.70;99.90
42261;DHT22;27926;48.062;7.474;2023-05-16T02:37:53;12.60;99.90
42261;DHT22;27926;48.062;7.474;2023-05-16T02:40:18;12.60;99.90
42261;DHT22;27926;48.062;7.474;2023-05-16T02:42:43;12.60;99.90
42261;DHT22;27926;48.062;7.474;2023-05-16T02:45:08;12.60;99.90
42261;DHT22;27926;48.062;7.474;2023-05-16T02:47:32;12.50;99.90
42261;DHT22;27926;48.062;7.474;2023-05-16T02:49:57;12.50;99.90
42261;DHT22;27926;48.062;7.474;2023-05-16T02:52:22;12.40;99.90
42261;DHT22;27926;48.062;7.474;2023-05-16T02:54:46;12.40;99.90
42261;DHT22;27926;48.062;7.474;2023-05-16T02:57:11;12.40;99.90
42261;DHT22;27926;48.062;7.474;2023-05-16T02:59:36;12.20;99.90
42261;DHT22;27926;48.062;7.474;2023-05-16T03:02:00;12.20;99.90
42261;DHT22;27926;48.062;7.474;2023-05-16T03:04:25;12.20;99.90
42261;DHT22;27926;48.062;7.474;2023-05-16T03:06:50;12.30;99.90
42261;DHT22;27926;48.062;7.474;2023-05-16T03:09:14;12.10;99.90
42261;DHT22;27926;48.062;7.474;2023-05-16T03:11:40;12.10;99.90
42261;DHT22;27926;48.062;7.474;2023-05-16T03:14:05;12.10;99.90
42261;DHT22;27926;48.062;7.474;2023-05-16T03:16:29;12.10;99.90
42261;DHT22;27926;48.062;7.474;2023-05-16T03:18:55;12.10;99.90
42261;DHT22;27926;48.062;7.474;2023-05-16T03:21:20;12.00;99.90
42261;DHT22;27926;48.062;7.474;2023-05-16T03:23:44;12.00;99.90
42261;DHT22;27926;48.062;7.474;2023-05-16T03:26:09;12.10;99.90
42261;DHT22;27926;48.062;7.474;2023-05-16T03:28:34;12.00;99.90
42261;DHT22;27926;48.062;7.474;2023-05-16T03:30:58;12.00;99.90
42261;DHT22;27926;48.062;7.474;2023-05-16T03:33:23;12.20;99.90
42261;DHT22;27926;48.062;7.474;2023-05-16T03:35:48;12.00;99.90
42261;DHT22;27926;48.062;7.474;2023-05-16T03:38:13;12.00;99.90
42261;DHT22;27926;48.062;7.474;2023-05-16T03:40:38;12.00;99.90
42261;DHT22;27926;48.062;7.474;2023-05-16T03:43:03;12.10;99.90
42261;DHT22;27926;48.062;7.474;2023-05-16T03:45:29;12.00;99.90
42261;DHT22;27926;48.062;7.474;2023-05-16T03:47:53;12.10;99.90
42261;DHT22;27926;48.062;7.474;2023-05-16T03:50:18;12.10;99.90
42261;DHT22;27926;48.062;7.474;2023-05-16T03:52:43;12.20;99.90
42261;DHT22;27926;48.062;7.474;2023-05-16T03:55:08;12.00;99.90
42261;DHT22;27926;48.062;7.474;2023-05-16T03:57:33;12.00;99.90
42261;DHT22;27926;48.062;7.474;2023-05-16T03:59:58;12.00;99.90
42261;DHT22;27926;48.062;7.474;2023-05-16T04:02:23;12.00;99.90
42261;DHT22;27926;48.062;7.474;2023-05-16T04:04:47;12.00;99.90
42261;DHT22;27926;48.062;7.474;2023-05-16T04:07:12;12.00;99.90
42261;DHT22;27926;48.062;7.474;2023-05-16T04:09:37;12.00;99.90
42261;DHT22;27926;48.062;7.474;2023-05-16T04:12:01;12.00;99.90
42261;DHT22;27926;48.062;7.474;2023-05-16T04:14:26;12.00;99.90
42261;DHT22;27926;48.062;7.474;2023-05-16T04:16:51;12.00;99.90
42261;DHT22;27926;48.062;7.474;2023-05-16T04:19:15;12.00;99.90
42261;DHT22;27926;48.062;7.474;2023-05-16T04:21:40;12.00;99.90
42261;DHT22;27926;48.062;7.474;2023-05-16T04:24:05;11.90;99.90
42261;DHT22;27926;48.062;7.474;2023-05-16T04:26:30;11.90;99.90
42261;DHT22;27926;48.062;7.474;2023-05-16T04:28:55;11.90;99.90
42261;DHT22;27926;48.062;7.474;2023-05-16T04:31:21;12.00;99.90
42261;DHT22;27926;48.062;7.474;2023-05-16T04:33:46;12.10;99.90
42261;DHT22;27926;48.062;7.474;2023-05-16T04:36:10;12.00;99.90
42261;DHT22;27926;48.062;7.474;2023-05-16T04:38:35;12.00;99.90
42261;DHT22;27926;48.062;7.474;2023-05-16T04:41:01;12.00;99.90
42261;DHT22;27926;48.062;7.474;2023-05-16T04:43:27;12.00;99.90
42261;DHT22;27926;48.062;7.474;2023-05-16T04:45:51;12.00;99.90
42261;DHT22;27926;48.062;7.474;2023-05-16T04:48:17;12.00;99.90
42261;DHT22;27926;48.062;7.474;2023-05-16T04:50:42;12.00;99.90
42261;DHT22;27926;48.062;7.474;2023-05-16T04:53:06;12.10;99.90
42261;DHT22;27926;48.062;7.474;2023-05-16T04:55:31;12.00;99.90
42261;DHT22;27926;48.062;7.474;2023-05-16T04:57:56;12.20;99.90
42261;DHT22;27926;48.062;7.474;2023-05-16T05:00:20;12.20;99.90
42261;DHT22;27926;48.062;7.474;2023-05-16T05:02:45;12.10;99.90
42261;DHT22;27926;48.062;7.474;2023-05-16T05:05:10;12.30;99.90
42261;DHT22;27926;48.062;7.474;2023-05-16T05:07:35;12.10;99.90
42261;DHT22;27926;48.062;7.474;2023-05-16T05:09:59;12.10;99.90
42261;DHT22;27926;48.062;7.474;2023-05-16T05:12:24;12.20;99.90
42261;DHT22;27926;48.062;7.474;2023-05-16T05:14:48;12.20;99.90
42261;DHT22;27926;48.062;7.474;2023-05-16T05:17:13;12.10;99.90
42261;DHT22;27926;48.062;7.474;2023-05-16T05:19:38;12.20;99.90
42261;DHT22;27926;48.062;7.474;2023-05-16T05:22:02;12.30;99.90
42261;DHT22;27926;48.062;7.474;2023-05-16T05:24:27;12.10;99.90
42261;DHT22;27926;48.062;7.474;2023-05-16T05:26:51;12.20;99.90
42261;DHT22;27926;48.062;7.474;2023-05-16T05:29:16;12.00;99.90
42261;DHT22;27926;48.062;7.474;2023-05-16T05:31:41;12.00;99.90
42261;DHT22;27926;48.062;7.474;2023-05-16T05:34:05;12.00;99.90
42261;DHT22;27926;48.062;7.474;2023-05-16T05:36:30;12.10;99.90
42261;DHT22;27926;48.062;7.474;2023-05-16T05:38:54;11.90;99.90
42261;DHT22;27926;48.062;7.474;2023-05-16T05:41:19;11.90;99.90
42261;DHT22;27926;48.062;7.474;2023-05-16T05:43:45;11.90;99.90
42261;DHT22;27926;48.062;7.474;2023-05-16T05:46:10;11.90;99.90
42261;DHT22;27926;48.062;7.474;2023-05-16T05:48:37;11.90;99.90
42261;DHT22;27926;48.062;7.474;2023-05-16T05:51:02;11.90;99.90
42261;DHT22;27926;48.062;7.474;2023-05-16T05:53:27;11.90;99.90
42261;DHT22;27926;48.062;7.474;2023-05-16T05:55:51;12.10;99.90
42261;DHT22;27926;48.062;7.474;2023-05-16T05:58:16;12.20;99.90
42261;DHT22;27926;48.062;7.474;2023-05-16T06:00:41;12.00;99.90
42261;DHT22;27926;48.062;7.474;2023-05-16T06:03:06;12.00;99.90
42261;DHT22;27926;48.062;7.474;2023-05-16T06:05:30;12.00;99.90
42261;DHT22;27926;48.062;7.474;2023-05-16T06:07:55;12.00;99.90
42261;DHT22;27926;48.062;7.474;2023-05-16T06:10:19;12.00;99.90
42261;DHT22;27926;48.062;7.474;2023-05-16T06:12:44;12.10;99.90
42261;DHT22;27926;48.062;7.474;2023-05-16T06:15:09;12.00;99.90
42261;DHT22;27926;48.062;7.474;2023-05-16T06:17:34;11.90;99.90
42261;DHT22;27926;48.062;7.474;2023-05-16T06:19:59;12.10;99.90
42261;DHT22;27926;48.062;7.474;2023-05-16T06:22:24;11.90;99.90
42261;DHT22;27926;48.062;7.474;2023-05-16T06:24:48;12.10;99.90
42261;DHT22;27926;48.062;7.474;2023-05-16T06:27:13;11.90;99.90
42261;DHT22;27926;48.062;7.474;2023-05-16T06:29:38;11.90;99.90
42261;DHT22;27926;48.062;7.474;2023-05-16T06:32:03;11.80;99.90
42261;DHT22;27926;48.062;7.474;2023-05-16T06:34:27;11.90;99.90
42261;DHT22;27926;48.062;7.474;2023-05-16T06:36:52;11.90;99.90
42261;DHT22;27926;48.062;7.474;2023-05-16T06:39:17;11.90;99.90
42261;DHT22;27926;48.062;7.474;2023-05-16T06:41:41;11.90;99.90
42261;DHT22;27926;48.062;7.474;2023-05-16T06:44:06;12.10;99.90
42261;DHT22;27926;48.062;7.474;2023-05-16T06:46:30;12.10;99.90
42261;DHT22;27926;48.062;7.474;2023-05-16T06:48:57;11.90;99.90
42261;DHT22;27926;48.062;7.474;2023-05-16T06:51:22;11.90;99.90
42261;DHT22;27926;48.062;7.474;2023-05-16T06:53:46;12.00;99.90
42261;DHT22;27926;48.062;7.474;2023-05-16T06:56:11;11.90;99.90
42261;DHT22;27926;48.062;7.474;2023-05-16T06:58:37;12.10;99.90
42261;DHT22;27926;48.062;7.474;2023-05-16T07:01:02;11.90;99.90
42261;DHT22;27926;48.062;7.474;2023-05-16T07:03:27;11.90;99.90
42261;DHT22;27926;48.062;7.474;2023-05-16T07:05:52;11.90;99.90
42261;DHT22;27926;48.062;7.474;2023-05-16T07:08:17;11.90;99.90
42261;DHT22;27926;48.062;7.474;2023-05-16T07:10:41;11.90;99.90
42261;DHT22;27926;48.062;7.474;2023-05-16T07:13:06;11.90;99.90
42261;DHT22;27926;48.062;7.474;2023-05-16T07:15:31;11.90;99.90
42261;DHT22;27926;48.062;7.474;2023-05-16T07:17:56;11.90;99.90
42261;DHT22;27926;48.062;7.474;2023-05-16T07:20:20;11.90;99.90
42261;DHT22;27926;48.062;7.474;2023-05-16T07:22:45;11.90;99.90
42261;DHT22;27926;48.062;7.474;2023-05-16T07:25:09;11.90;99.90
42261;DHT22;27926;48.062;7.474;2023-05-16T07:27:35;11.90;99.90
42261;DHT22;27926;48.062;7.474;2023-05-16T07:30:00;11.90;99.90
42261;DHT22;27926;48.062;7.474;2023-05-16T07:32:25;11.90;99.90
42261;DHT22;27926;48.062;7.474;2023-05-16T07:34:49;12.10;99.90
42261;DHT22;27926;48.062;7.474;2023-05-16T07:37:14;11.90;99.90
42261;DHT22;27926;48.062;7.474;2023-05-16T07:39:39;11.90;99.90
42261;DHT22;27926;48.062;7.474;2023-05-16T07:42:05;11.90;99.90
42261;DHT22;27926;48.062;7.474;2023-05-16T07:44:30;12.00;99.90
42261;DHT22;27926;48.062;7.474;2023-05-16T07:46:55;12.00;99.90
42261;DHT22;27926;48.062;7.474;2023-05-16T07:49:19;12.00;99.90
42261;DHT22;27926;48.062;7.474;2023-05-16T07:51:44;12.00;99.90
42261;DHT22;27926;48.062;7.474;2023-05-16T07:54:08;12.00;99.90
42261;DHT22;27926;48.062;7.474;2023-05-16T07:56:33;12.00;99.90
42261;DHT22;27926;48.062;7.474;2023-05-16T07:58:58;12.00;99.90
42261;DHT22;27926;48.062;7.474;2023-05-16T08:01:23;12.00;99.90
42261;DHT22;27926;48.062;7.474;2023-05-16T08:03:48;12.10;99.90
42261;DHT22;27926;48.062;7.474;2023-05-16T08:06:13;12.00;99.90
42261;DHT22;27926;48.062;7.474;2023-05-16T08:08:37;12.00;99.90
42261;DHT22;27926;48.062;7.474;2023-05-16T08:11:03;12.00;99.90
42261;DHT22;27926;48.062;7.474;2023-05-16T08:13:28;12.00;99.90
42261;DHT22;27926;48.062;7.474;2023-05-16T08:15:53;12.00;99.90
42261;DHT22;27926;48.062;7.474;2023-05-16T08:18:18;11.90;99.90
42261;DHT22;27926;48.062;7.474;2023-05-16T08:20:42;11.90;99.90
42261;DHT22;27926;48.062;7.474;2023-05-16T08:23:08;12.00;99.90
42261;DHT22;27926;48.062;7.474;2023-05-16T08:25:32;11.90;99.90
42261;DHT22;27926;48.062;7.474;2023-05-16T08:27:57;11.90;99.90
42261;DHT22;27926;48.062;7.474;2023-05-16T08:30:22;11.90;99.90
42261;DHT22;27926;48.062;7.474;2023-05-16T08:32:46;11.90;99.90
42261;DHT22;27926;48.062;7.474;2023-05-16T08:35:11;11.90;99.90
42261;DHT22;27926;48.062;7.474;2023-05-16T08:37:36;11.90;99.90
42261;DHT22;27926;48.062;7.474;2023-05-16T08:40:01;11.90;99.90
42261;DHT22;27926;48.062;7.474;2023-05-16T08:42:25;11.90;99.90
42261;DHT22;27926;48.062;7.474;2023-05-16T08:44:50;11.90;99.90
42261;DHT22;27926;48.062;7.474;2023-05-16T08:47:19;12.10;99.90
42261;DHT22;27926;48.062;7.474;2023-05-16T08:49:47;12.00;99.90
42261;DHT22;27926;48.062;7.474;2023-05-16T08:52:12;12.00;99.90
42261;DHT22;27926;48.062;7.474;2023-05-16T08:54:38;12.10;99.90
42261;DHT22;27926;48.062;7.474;2023-05-16T08:57:04;12.10;99.90
42261;DHT22;27926;48.062;7.474;2023-05-16T08:59:30;12.10;99.90
42261;DHT22;27926;48.062;7.474;2023-05-16T09:01:56;12.20;99.90
42261;DHT22;27926;48.062;7.474;2023-05-16T09:04:20;12.10;99.90
42261;DHT22;27926;48.062;7.474;2023-05-16T09:06:47;12.10;99.90
42261;DHT22;27926;48.062;7.474;2023-05-16T09:09:11;12.20;99.90
42261;DHT22;27926;48.062;7.474;2023-05-16T09:11:36;12.40;99.90
42261;DHT22;27926;48.062;7.474;2023-05-16T09:14:00;12.20;99.90
42261;DHT22;27926;48.062;7.474;2023-05-16T09:16:25;12.30;99.90
42261;DHT22;27926;48.062;7.474;2023-05-16T09:18:55;12.30;99.90
42261;DHT22;27926;48.062;7.474;2023-05-16T09:21:20;12.30;99.90
42261;DHT22;27926;48.062;7.474;2023-05-16T09:23:48;12.30;99.90
42261;DHT22;27926;48.062;7.474;2023-05-16T09:26:12;12.40;99.90
42261;DHT22;27926;48.062;7.474;2023-05-16T09:28:38;12.40;99.90
42261;DHT22;27926;48.062;7.474;2023-05-16T09:31:03;12.40;99.90
42261;DHT22;27926;48.062;7.474;2023-05-16T09:33:28;12.50;99.90
42261;DHT22;27926;48.062;7.474;2023-05-16T09:35:57;12.50;99.90
42261;DHT22;27926;48.062;7.474;2023-05-16T09:38:23;12.50;99.90
42261;DHT22;27926;48.062;7.474;2023-05-16T09:40:49;12.60;99.90
42261;DHT22;27926;48.062;7.474;2023-05-16T09:43:15;12.60;99.90
42261;DHT22;27926;48.062;7.474;2023-05-16T09:45:45;12.60;99.90
42261;DHT22;27926;48.062;7.474;2023-05-16T09:48:10;12.60;99.90
42261;DHT22;27926;48.062;7.474;2023-05-16T09:50:38;12.60;99.90
42261;DHT22;27926;48.062;7.474;2023-05-16T09:53:04;12.50;99.90
42261;DHT22;27926;48.062;7.474;2023-05-16T09:55:29;12.50;99.90
42261;DHT22;27926;48.062;7.474;2023-05-16T09:57:55;12.50;99.90
42261;DHT22;27926;48.062;7.474;2023-05-16T10:00:19;12.40;99.90
42261;DHT22;27926;48.062;7.474;2023-05-16T10:02:44;12.40;99.90
42261;DHT22;27926;48.062;7.474;2023-05-16T10:05:09;12.40;99.90
42261;DHT22;27926;48.062;7.474;2023-05-16T10:07:34;12.40;99.90
42261;DHT22;27926;48.062;7.474;2023-05-16T10:10:05;12.40;99.90
42261;DHT22;27926;48.062;7.474;2023-05-16T10:12:30;12.30;99.90
42261;DHT22;27926;48.062;7.474;2023-05-16T10:14:56;12.30;99.90
42261;DHT22;27926;48.062;7.474;2023-05-16T10:17:25;12.30;99.90
42261;DHT22;27926;48.062;7.474;2023-05-16T10:19:51;12.30;99.90
42261;DHT22;27926;48.062;7.474;2023-05-16T10:22:18;12.40;99.90
42261;DHT22;27926;48.062;7.474;2023-05-16T10:27:40;12.20;99.90
42261;DHT22;27926;48.062;7.474;2023-05-16T10:30:06;12.30;99.90
42261;DHT22;27926;48.062;7.474;2023-05-16T10:32:31;12.20;99.90
42261;DHT22;27926;48.062;7.474;2023-05-16T10:34:56;12.10;99.90
42261;DHT22;27926;48.062;7.474;2023-05-16T10:37:24;12.10;99.90
42261;DHT22;27926;48.062;7.474;2023-05-16T10:39:49;12.00;99.90
42261;DHT22;27926;48.062;7.474;2023-05-16T10:42:14;12.00;99.90
42261;DHT22;27926;48.062;7.474;2023-05-16T10:44:41;11.90;99.90
42261;DHT22;27926;48.062;7.474;2023-05-16T10:47:06;12.00;99.90
42261;DHT22;27926;48.062;7.474;2023-05-16T10:49:30;11.90;99.90
42261;DHT22;27926;48.062;7.474;2023-05-16T10:52:06;11.80;99.90
42261;DHT22;27926;48.062;7.474;2023-05-16T10:54:36;11.70;99.90
42261;DHT22;27926;48.062;7.474;2023-05-16T10:57:22;11.70;99.90
42261;DHT22;27926;48.062;7.474;2023-05-16T10:59:48;11.60;99.90
42261;DHT22;27926;48.062;7.474;2023-05-16T11:02:27;11.60;99.90
42261;DHT22;27926;48.062;7.474;2023-05-16T11:04:56;11.60;99.90
42261;DHT22;27926;48.062;7.474;2023-05-16T11:07:25;11.60;99.90
42261;DHT22;27926;48.062;7.474;2023-05-16T11:10:08;11.70;99.90
42261;DHT22;27926;48.062;7.474;2023-05-16T11:12:47;11.60;99.90
42261;DHT22;27926;48.062;7.474;2023-05-16T11:15:25;11.80;99.90
42261;DHT22;27926;48.062;7.474;2023-05-16T11:17:50;11.80;99.90
42261;DHT22;27926;48.062;7.474;2023-05-16T11:20:33;11.90;99.90
42261;DHT22;27926;48.062;7.474;2023-05-16T11:23:19;11.90;99.90
42261;DHT22;27926;48.062;7.474;2023-05-16T11:25:46;11.90;99.90
42261;DHT22;27926;48.062;7.474;2023-05-16T11:28:12;11.90;99.90
42261;DHT22;27926;48.062;7.474;2023-05-16T11:30:52;11.90;99.90
42261;DHT22;27926;48.062;7.474;2023-05-16T11:33:18;11.80;99.90
42261;DHT22;27926;48.062;7.474;2023-05-16T11:35:43;12.00;99.90
42261;DHT22;27926;48.062;7.474;2023-05-16T11:38:22;11.80;99.90
42261;DHT22;27926;48.062;7.474;2023-05-16T11:40:47;12.10;99.90
42261;DHT22;27926;48.062;7.474;2023-05-16T11:43:17;12.00;99.90
42261;DHT22;27926;48.062;7.474;2023-05-16T11:45:42;12.00;99.90
42261;DHT22;27926;48.062;7.474;2023-05-16T11:48:08;12.00;99.90
42261;DHT22;27926;48.062;7.474;2023-05-16T11:50:33;12.10;99.90
42261;DHT22;27926;48.062;7.474;2023-05-16T11:52:59;12.20;99.90
42261;DHT22;27926;48.062;7.474;2023-05-16T11:55:27;12.20;99.90
42261;DHT22;27926;48.062;7.474;2023-05-16T11:57:53;12.30;99.90
42261;DHT22;27926;48.062;7.474;2023-05-16T12:00:20;12.20;99.90
42261;DHT22;27926;48.062;7.474;2023-05-16T12:02:47;12.20;99.90
42261;DHT22;27926;48.062;7.474;2023-05-16T12:05:12;12.20;99.90
42261;DHT22;27926;48.062;7.474;2023-05-16T12:07:38;12.20;99.90
42261;DHT22;27926;48.062;7.474;2023-05-16T12:10:11;12.20;99.90
42261;DHT22;27926;48.062;7.474;2023-05-16T12:12:38;12.20;99.90
42261;DHT22;27926;48.062;7.474;2023-05-16T12:15:04;12.20;99.90
42261;DHT22;27926;48.062;7.474;2023-05-16T12:17:30;12.10;99.90
42261;DHT22;27926;48.062;7.474;2023-05-16T12:19:55;12.10;99.90
42261;DHT22;27926;48.062;7.474;2023-05-16T12:22:19;12.20;99.90
42261;DHT22;27926;48.062;7.474;2023-05-16T12:24:44;12.20;99.90
42261;DHT22;27926;48.062;7.474;2023-05-16T12:27:09;12.20;99.90
42261;DHT22;27926;48.062;7.474;2023-05-16T12:29:33;12.20;99.90
42261;DHT22;27926;48.062;7.474;2023-05-16T12:31:59;12.20;99.90
42261;DHT22;27926;48.062;7.474;2023-05-16T12:34:27;12.30;99.90
42261;DHT22;27926;48.062;7.474;2023-05-16T12:36:52;13.30;99.90
42261;DHT22;27926;48.062;7.474;2023-05-16T12:39:19;12.20;99.90
42261;DHT22;27926;48.062;7.474;2023-05-16T12:41:44;12.30;99.90
42261;DHT22;27926;48.062;7.474;2023-05-16T12:44:13;12.10;99.90
42261;DHT22;27926;48.062;7.474;2023-05-16T12:46:44;12.00;99.90
42261;DHT22;27926;48.062;7.474;2023-05-16T12:49:09;11.90;99.90
42261;DHT22;27926;48.062;7.474;2023-05-16T12:51:33;11.90;99.90
42261;DHT22;27926;48.062;7.474;2023-05-16T12:54:07;12.00;99.90
42261;DHT22;27926;48.062;7.474;2023-05-16T12:56:32;12.00;99.90
42261;DHT22;27926;48.062;7.474;2023-05-16T12:58:56;12.00;99.90
42261;DHT22;27926;48.062;7.474;2023-05-16T13:01:21;12.10;99.90
42261;DHT22;27926;48.062;7.474;2023-05-16T13:03:46;12.00;99.90
42261;DHT22;27926;48.062;7.474;2023-05-16T13:06:10;12.10;99.90
42261;DHT22;27926;48.062;7.474;2023-05-16T13:08:35;12.10;99.90
42261;DHT22;27926;48.062;7.474;2023-05-16T13:11:00;12.10;99.90
42261;DHT22;27926;48.062;7.474;2023-05-16T13:13:24;12.10;99.90
42261;DHT22;27926;48.062;7.474;2023-05-16T13:15:49;12.30;99.90
42261;DHT22;27926;48.062;7.474;2023-05-16T13:18:14;12.20;99.90
42261;DHT22;27926;48.062;7.474;2023-05-16T13:20:38;12.30;99.90
42261;DHT22;27926;48.062;7.474;2023-05-16T13:23:03;12.30;99.90
42261;DHT22;27926;48.062;7.474;2023-05-16T13:25:28;12.20;99.90
42261;DHT22;27926;48.062;7.474;2023-05-16T13:27:53;12.30;99.90
42261;DHT22;27926;48.062;7.474;2023-05-16T13:30:17;12.30;99.90
42261;DHT22;27926;48.062;7.474;2023-05-16T13:32:42;12.30;99.90
42261;DHT22;27926;48.062;7.474;2023-05-16T13:35:07;12.20;99.90
42261;DHT22;27926;48.062;7.474;2023-05-16T13:37:32;12.10;99.90
42261;DHT22;27926;48.062;7.474;2023-05-16T13:39:57;12.10;99.90
42261;DHT22;27926;48.062;7.474;2023-05-16T13:42:22;12.10;99.90
42261;DHT22;27926;48.062;7.474;2023-05-16T13:44:46;12.10;99.90
42261;DHT22;27926;48.062;7.474;2023-05-16T13:47:11;12.10;99.90
42261;DHT22;27926;48.062;7.474;2023-05-16T13:49:36;12.10;99.90
42261;DHT22;27926;48.062;7.474;2023-05-16T13:52:01;12.10;99.90
42261;DHT22;27926;48.062;7.474;2023-05-16T13:54:25;12.00;99.90
42261;DHT22;27926;48.062;7.474;2023-05-16T13:56:50;12.10;99.90
42261;DHT22;27926;48.062;7.474;2023-05-16T13:59:14;11.90;99.90
42261;DHT22;27926;48.062;7.474;2023-05-16T14:01:39;11.90;99.90
42261;DHT22;27926;48.062;7.474;2023-05-16T14:04:05;11.80;99.90
42261;DHT22;27926;48.062;7.474;2023-05-16T14:06:29;11.90;99.90
42261;DHT22;27926;48.062;7.474;2023-05-16T14:08:54;11.60;99.90
42261;DHT22;27926;48.062;7.474;2023-05-16T14:11:19;11.70;99.90
42261;DHT22;27926;48.062;7.474;2023-05-16T14:13:46;11.60;99.90
42261;DHT22;27926;48.062;7.474;2023-05-16T14:16:11;11.70;99.90
42261;DHT22;27926;48.062;7.474;2023-05-16T14:18:36;11.80;99.90
42261;DHT22;27926;48.062;7.474;2023-05-16T14:21:01;11.80;99.90
42261;DHT22;27926;48.062;7.474;2023-05-16T14:23:25;11.80;99.90
42261;DHT22;27926;48.062;7.474;2023-05-16T14:25:50;11.80;99.90
42261;DHT22;27926;48.062;7.474;2023-05-16T14:28:14;11.80;99.90
42261;DHT22;27926;48.062;7.474;2023-05-16T14:30:40;11.80;99.90
42261;DHT22;27926;48.062;7.474;2023-05-16T14:33:04;11.80;99.90
42261;DHT22;27926;48.062;7.474;2023-05-16T14:35:29;11.80;99.90
42261;DHT22;27926;48.062;7.474;2023-05-16T14:37:54;11.80;99.90
42261;DHT22;27926;48.062;7.474;2023-05-16T14:40:19;11.80;99.90
42261;DHT22;27926;48.062;7.474;2023-05-16T14:42:45;11.80;99.90
42261;DHT22;27926;48.062;7.474;2023-05-16T14:45:09;11.90;99.90
42261;DHT22;27926;48.062;7.474;2023-05-16T14:47:34;11.80;99.90
42261;DHT22;27926;48.062;7.474;2023-05-16T14:49:59;11.80;99.90
42261;DHT22;27926;48.062;7.474;2023-05-16T14:52:24;11.80;99.90
42261;DHT22;27926;48.062;7.474;2023-05-16T14:54:49;11.80;99.90
42261;DHT22;27926;48.062;7.474;2023-05-16T14:57:13;11.70;99.90
42261;DHT22;27926;48.062;7.474;2023-05-16T14:59:38;11.70;99.90
42261;DHT22;27926;48.062;7.474;2023-05-16T15:02:02;11.60;99.90
42261;DHT22;27926;48.062;7.474;2023-05-16T15:04:27;11.60;99.90
42261;DHT22;27926;48.062;7.474;2023-05-16T15:06:52;11.50;99.90
42261;DHT22;27926;48.062;7.474;2023-05-16T15:09:17;11.50;99.90
42261;DHT22;27926;48.062;7.474;2023-05-16T15:11:42;11.40;99.90
42261;DHT22;27926;48.062;7.474;2023-05-16T15:14:07;11.40;99.90
42261;DHT22;27926;48.062;7.474;2023-05-16T15:16:32;11.40;99.90
42261;DHT22;27926;48.062;7.474;2023-05-16T15:52:04;11.40;99.90
42261;DHT22;27926;48.062;7.474;2023-05-16T15:54:29;11.60;99.90
42261;DHT22;27926;48.062;7.474;2023-05-16T15:56:54;11.60;99.90
42261;DHT22;27926;48.062;7.474;2023-05-16T15:59:18;11.70;99.90
42261;DHT22;27926;48.062;7.474;2023-05-16T16:01:43;11.70;99.90
42261;DHT22;27926;48.062;7.474;2023-05-16T16:04:07;11.80;99.90
42261;DHT22;27926;48.062;7.474;2023-05-16T16:06:32;11.80;99.90